createdAt,value
2022-09-15T00:00:27.222Z,23.33
2022-09-15T00:02:54.727Z,24.08
2022-09-15T00:05:22.255Z,29.15
2022-09-15T00:07:49.725Z,26.90
2022-09-15T00:10:17.608Z,25.73
2022-09-15T00:12:45.544Z,21.25
2022-09-15T00:15:15.004Z,24.25
2022-09-15T00:17:49.489Z,25.40
2022-09-15T00:20:17.774Z,25.50
2022-09-15T00:22:45.271Z,21.75
2022-09-15T00:25:13.846Z,24.33
2022-09-15T00:27:41.893Z,23.52
2022-09-15T00:30:10.294Z,23.67
2022-09-15T00:32:37.814Z,24.63
2022-09-15T00:35:07.258Z,25.80
2022-09-15T00:37:34.943Z,25.35
2022-09-15T00:40:03.002Z,23.98
2022-09-15T00:42:30.612Z,26.52
2022-09-15T00:45:00.535Z,24.50
2022-09-15T00:47:40.985Z,23.33
2022-09-15T00:50:13.950Z,25.33
2022-09-15T00:52:47.074Z,23.20
2022-09-15T00:55:20.535Z,29.38
2022-09-15T00:57:53.486Z,27.35
2022-09-15T01:00:22.973Z,23.27
2022-09-15T01:02:51.344Z,25.38
2022-09-15T01:05:23.528Z,32.92
2022-09-15T01:07:57.173Z,24.90
2022-09-15T01:10:27.772Z,21.23
2022-09-15T01:12:57.591Z,24.88
2022-09-15T01:15:33.154Z,21.38
2022-09-15T01:18:15.834Z,23.63
2022-09-15T01:21:09.915Z,24.13
2022-09-15T01:24:03.099Z,26.35
2022-09-15T01:26:52.578Z,23.05
2022-09-15T01:30:04.689Z,29.15
2022-09-15T01:32:59.471Z,25.65
2022-09-15T01:35:35.828Z,24.00
2022-09-15T01:38:09.956Z,24.42
2022-09-15T01:40:42.856Z,27.33
2022-09-15T01:43:11.724Z,24.05
2022-09-15T01:45:43.210Z,22.20
2022-09-15T01:48:12.293Z,21.83
2022-09-15T01:50:52.088Z,24.20
2022-09-15T01:53:22.727Z,24.73
2022-09-15T01:55:55.531Z,22.90
2022-09-15T01:58:23.437Z,21.38
2022-09-15T02:00:57.787Z,21.63
2022-09-15T02:03:34.982Z,22.15
2022-09-15T02:06:07.871Z,23.25
2022-09-15T02:08:42.717Z,21.08
2022-09-15T02:11:16.458Z,22.70
2022-09-15T02:13:54.051Z,20.52
2022-09-15T02:16:23.178Z,22.08
2022-09-15T02:19:17.626Z,20.55
2022-09-15T02:21:58.117Z,22.73
2022-09-15T02:24:33.637Z,23.67
2022-09-15T02:27:03.400Z,21.63
2022-09-15T02:29:36.069Z,24.67
2022-09-15T02:32:07.375Z,23.00
2022-09-15T02:34:41.297Z,21.70
2022-09-15T02:37:10.648Z,25.35
2022-09-15T02:39:41.809Z,21.10
2022-09-15T02:42:10.794Z,22.77
2022-09-15T02:44:38.400Z,22.17
2022-09-15T02:47:06.180Z,22.17
2022-09-15T02:49:33.673Z,21.85
2022-09-15T02:52:02.801Z,28.27
2022-09-15T02:54:30.352Z,21.35
2022-09-15T02:56:59.995Z,23.42
2022-09-15T02:59:47.485Z,24.92
2022-09-15T03:02:15.066Z,21.70
2022-09-15T03:04:42.660Z,24.42
2022-09-15T03:07:11.534Z,24.60
2022-09-15T03:09:39.050Z,25.00
2022-09-15T03:12:07.087Z,23.20
2022-09-15T03:14:35.384Z,25.48
2022-09-15T03:17:02.989Z,25.02
2022-09-15T03:19:30.946Z,22.17
2022-09-15T03:21:58.715Z,22.98
2022-09-15T03:24:27.801Z,25.15
2022-09-15T03:26:55.297Z,22.83
2022-09-15T03:29:22.985Z,22.77
2022-09-15T03:31:50.554Z,20.75
2022-09-15T03:34:18.221Z,25.70
2022-09-15T03:36:45.715Z,25.17
2022-09-15T03:39:14.062Z,27.23
2022-09-15T03:41:42.897Z,26.50
2022-09-15T03:44:10.399Z,22.65
2022-09-15T03:46:37.869Z,23.92
2022-09-15T03:49:06.421Z,28.75
2022-09-15T03:51:33.916Z,25.05
2022-09-15T03:54:01.422Z,24.95
2022-09-15T03:56:31.246Z,21.38
2022-09-15T03:59:01.575Z,28.67
2022-09-15T04:01:29.995Z,25.65
2022-09-15T04:03:57.832Z,24.58
2022-09-15T04:06:26.475Z,22.65
2022-09-15T04:08:54.920Z,33.42
2022-09-15T04:11:23.590Z,26.90
2022-09-15T04:13:51.434Z,27.30
2022-09-15T04:16:23.019Z,25.77
2022-09-15T04:18:51.354Z,26.20
2022-09-15T04:21:21.105Z,29.50
2022-09-15T04:23:49.131Z,27.33
2022-09-15T04:26:21.692Z,24.38
2022-09-15T04:28:49.197Z,26.58
2022-09-15T04:31:18.175Z,23.92
2022-09-15T04:33:48.060Z,25.33
2022-09-15T04:36:17.509Z,25.52
2022-09-15T04:38:45.652Z,24.98
2022-09-15T04:41:14.045Z,25.73
2022-09-15T04:43:41.614Z,23.15
2022-09-15T04:46:09.250Z,30.75
2022-09-15T04:48:37.677Z,22.17
2022-09-15T04:51:08.702Z,27.63
2022-09-15T04:53:37.051Z,24.35
2022-09-15T04:56:05.763Z,29.58
2022-09-15T04:58:37.283Z,27.00
2022-09-15T05:01:08.748Z,26.50
2022-09-15T05:03:37.295Z,30.00
2022-09-15T05:06:08.279Z,29.77
2022-09-15T05:08:36.400Z,23.17
2022-09-15T05:11:06.095Z,28.05
2022-09-15T05:13:34.744Z,23.70
2022-09-15T05:16:06.826Z,26.48
2022-09-15T05:18:34.794Z,23.92
2022-09-15T05:21:03.454Z,23.25
2022-09-15T05:23:34.197Z,23.92
2022-09-15T05:26:03.550Z,19.65
2022-09-15T05:28:33.736Z,19.85
2022-09-15T05:31:01.335Z,20.23
2022-09-15T05:33:28.886Z,24.80
2022-09-15T05:35:58.552Z,20.65
2022-09-15T05:38:27.265Z,24.80
2022-09-15T05:41:02.305Z,29.08
2022-09-15T05:45:58.548Z,30.10
2022-09-15T05:48:26.049Z,28.08
2022-09-15T05:50:55.095Z,24.30
2022-09-15T05:53:23.444Z,22.08
2022-09-15T05:55:57.235Z,21.70
2022-09-15T05:58:24.996Z,22.70
2022-09-15T06:00:53.199Z,25.70
2022-09-15T06:03:21.747Z,24.33
2022-09-15T06:05:49.688Z,23.05
2022-09-15T06:08:17.658Z,21.27
2022-09-15T06:10:45.209Z,20.02
2022-09-15T06:13:14.846Z,18.80
2022-09-15T06:15:42.439Z,24.75
2022-09-15T06:18:09.942Z,21.55
2022-09-15T06:20:37.486Z,27.92
2022-09-15T06:23:04.958Z,20.38
2022-09-15T06:25:32.549Z,20.73
2022-09-15T06:28:00.013Z,19.40
2022-09-15T06:30:28.942Z,23.40
2022-09-15T06:32:56.551Z,18.08
2022-09-15T06:35:24.115Z,22.50
2022-09-15T06:37:51.634Z,20.40
2022-09-15T06:40:19.248Z,21.27
2022-09-15T06:42:46.881Z,21.08
2022-09-15T06:45:14.442Z,23.38
2022-09-15T06:47:43.269Z,21.60
2022-09-15T06:50:10.901Z,24.52
2022-09-15T06:52:38.391Z,24.13
2022-09-15T06:55:06.327Z,23.88
2022-09-15T06:57:34.202Z,23.00
2022-09-15T07:00:02.020Z,22.92
2022-09-15T07:02:29.582Z,20.92
2022-09-15T07:04:58.836Z,30.20
2022-09-15T07:07:26.327Z,27.85
2022-09-15T07:09:53.874Z,20.58
2022-09-15T07:12:21.347Z,20.92
2022-09-15T07:14:48.878Z,24.05
2022-09-15T07:17:16.371Z,25.25
2022-09-15T07:19:45.246Z,23.25
2022-09-15T07:22:14.089Z,23.10
2022-09-15T07:24:41.616Z,23.52
2022-09-15T07:27:09.531Z,22.45
2022-09-15T07:29:38.194Z,25.10
2022-09-15T07:32:06.731Z,22.52
2022-09-15T07:34:34.291Z,22.48
2022-09-15T07:37:01.875Z,19.85
2022-09-15T07:39:33.074Z,28.77
2022-09-15T07:42:00.581Z,22.48
2022-09-15T07:44:28.086Z,22.17
2022-09-15T07:46:55.602Z,24.20
2022-09-15T07:49:23.100Z,28.80
2022-09-15T07:51:50.626Z,24.73
2022-09-15T07:54:22.012Z,19.70
2022-09-15T07:56:51.794Z,20.73
2022-09-15T07:59:19.318Z,17.42
2022-09-15T08:01:46.934Z,22.63
2022-09-15T08:04:14.480Z,18.17
2022-09-15T08:06:41.972Z,20.55
2022-09-15T08:09:14.452Z,17.67
2022-09-15T08:11:42.610Z,21.05
2022-09-15T08:14:11.507Z,18.75
2022-09-15T08:16:39.494Z,16.60
2022-09-15T08:19:07.053Z,16.45
2022-09-15T08:21:34.589Z,19.17
2022-09-15T08:24:02.260Z,18.60
2022-09-15T08:26:30.961Z,15.50
2022-09-15T08:28:59.353Z,19.52
2022-09-15T08:31:28.348Z,14.40
2022-09-15T08:33:56.735Z,16.38
2022-09-15T08:36:27.420Z,16.42
2022-09-15T08:38:54.916Z,13.98
2022-09-15T08:41:26.770Z,17.33
2022-09-15T08:44:02.749Z,17.23
2022-09-15T08:46:37.712Z,13.65
2022-09-15T08:51:41.816Z,13.55
2022-09-15T08:54:16.613Z,16.65
2022-09-15T08:56:45.222Z,13.32
2022-09-15T08:59:15.749Z,12.15
2022-09-15T09:01:53.789Z,15.90
2022-09-15T09:04:37.494Z,9.82
2022-09-15T09:07:15.423Z,17.88
2022-09-15T09:09:50.115Z,13.23
2022-09-15T09:12:46.499Z,12.20
2022-09-15T09:15:24.479Z,13.73
2022-09-15T09:18:12.555Z,17.73
2022-09-15T09:20:48.233Z,15.70
2022-09-15T09:23:19.224Z,12.05
2022-09-15T09:25:47.295Z,12.35
2022-09-15T09:28:28.995Z,14.45
2022-09-15T09:31:00.400Z,11.85
2022-09-15T09:33:32.324Z,10.32
2022-09-15T09:36:02.318Z,9.95
2022-09-15T09:38:32.734Z,12.25
2022-09-15T09:41:02.627Z,9.63
2022-09-15T09:43:31.423Z,9.02
2022-09-15T09:45:59.338Z,6.07
2022-09-15T09:48:30.429Z,8.07
2022-09-15T09:50:57.975Z,6.05
2022-09-15T09:53:29.027Z,6.20
2022-09-15T09:56:16.752Z,8.48
2022-09-15T09:58:44.636Z,6.50
2022-09-15T10:01:14.285Z,9.40
2022-09-15T10:03:45.107Z,9.02
2022-09-15T10:06:14.828Z,5.78
2022-09-15T10:09:05.166Z,7.05
2022-09-15T10:11:42.009Z,9.00
2022-09-15T10:14:19.870Z,7.75
2022-09-15T10:16:58.073Z,6.15
2022-09-15T10:19:27.798Z,4.53
2022-09-15T10:21:55.897Z,6.70
2022-09-15T10:24:34.144Z,5.97
2022-09-15T10:27:27.006Z,6.47
2022-09-15T10:29:55.491Z,6.43
2022-09-15T10:32:26.008Z,6.13
2022-09-15T10:35:18.101Z,5.35
2022-09-15T10:37:59.676Z,5.82
2022-09-15T10:40:34.024Z,8.10
2022-09-15T10:43:16.547Z,8.43
2022-09-15T10:45:48.724Z,7.90
2022-09-15T10:48:43.739Z,6.50
2022-09-15T10:51:27.748Z,6.15
2022-09-15T10:54:13.353Z,13.57
2022-09-15T10:56:44.062Z,10.98
2022-09-15T10:59:27.552Z,10.05
2022-09-15T11:02:13.142Z,5.45
2022-09-15T11:05:04.696Z,6.00
2022-09-15T11:07:43.188Z,7.72
2022-09-15T11:10:19.024Z,8.45
2022-09-15T11:13:01.457Z,6.28
2022-09-15T11:15:42.630Z,6.40
2022-09-15T11:18:43.336Z,9.52
2022-09-15T11:21:21.947Z,6.68
2022-09-15T11:23:58.142Z,4.30
2022-09-15T11:26:31.072Z,5.32
2022-09-15T11:29:04.963Z,9.13
2022-09-15T11:31:38.976Z,6.75
2022-09-15T11:34:12.684Z,5.33
2022-09-15T11:36:45.691Z,5.97
2022-09-15T11:39:21.349Z,7.53
2022-09-15T11:41:56.361Z,5.68
2022-09-15T11:47:11.484Z,5.57
2022-09-15T11:49:43.730Z,6.90
2022-09-15T11:52:33.717Z,6.00
2022-09-15T11:55:13.761Z,4.25
2022-09-15T11:57:47.194Z,3.58
2022-09-15T12:00:16.911Z,6.38
2022-09-15T12:02:51.185Z,5.20
2022-09-15T12:05:23.823Z,6.25
2022-09-15T12:07:56.309Z,5.45
2022-09-15T12:10:31.353Z,5.50
2022-09-15T12:13:01.760Z,6.40
2022-09-15T12:15:29.834Z,3.35
2022-09-15T12:18:27.430Z,6.90
2022-09-15T12:21:02.678Z,6.65
2022-09-15T12:23:34.769Z,3.58
2022-09-15T12:26:14.673Z,6.30
2022-09-15T12:28:54.162Z,5.00
2022-09-15T12:31:39.311Z,8.35
2022-09-15T12:34:36.018Z,8.55
2022-09-15T12:37:13.908Z,6.10
2022-09-15T12:39:42.981Z,7.68
2022-09-15T12:42:20.654Z,4.25
2022-09-15T12:44:53.188Z,5.85
2022-09-15T12:47:26.467Z,4.40
2022-09-15T12:49:58.927Z,7.22
2022-09-15T12:52:26.782Z,7.13
2022-09-15T12:54:57.869Z,6.25
2022-09-15T12:57:29.254Z,8.77
2022-09-15T13:00:28.742Z,7.72
2022-09-15T13:02:56.700Z,6.50
2022-09-15T13:06:10.197Z,13.50
2022-09-15T13:08:49.126Z,11.80
2022-09-15T13:11:20.201Z,4.68
2022-09-15T13:13:52.568Z,10.60
2022-09-15T13:16:27.432Z,7.30
2022-09-15T13:19:06.318Z,7.70
2022-09-15T13:21:37.395Z,8.07
2022-09-15T13:24:15.178Z,4.53
2022-09-15T13:26:45.071Z,7.65
2022-09-15T13:29:16.161Z,7.03
2022-09-15T13:31:53.363Z,6.85
2022-09-15T13:35:13.251Z,5.75
2022-09-15T13:40:59.219Z,7.88
2022-09-15T13:44:00.758Z,11.88
2022-09-15T13:46:40.370Z,10.38
2022-09-15T13:49:32.784Z,5.75
2022-09-15T13:52:08.118Z,10.63
2022-09-15T13:54:35.645Z,6.72
2022-09-15T13:57:05.005Z,7.45
2022-09-15T13:59:34.706Z,5.47
2022-09-15T14:02:02.462Z,7.25
2022-09-15T14:04:32.389Z,6.22
2022-09-15T14:07:02.093Z,5.25
2022-09-15T14:09:33.110Z,5.63
2022-09-15T14:12:06.133Z,5.32
2022-09-15T14:14:38.318Z,8.98
2022-09-15T14:17:06.223Z,7.50
2022-09-15T14:19:35.978Z,4.15
2022-09-15T14:22:24.729Z,9.40
2022-09-15T14:24:53.824Z,5.95
2022-09-15T14:27:25.458Z,8.57
2022-09-15T14:29:57.559Z,3.78
2022-09-15T14:32:27.815Z,5.97
2022-09-15T14:34:58.026Z,6.10
2022-09-15T14:37:28.426Z,5.07
2022-09-15T14:39:58.060Z,2.53
2022-09-15T14:42:30.547Z,3.13
2022-09-15T14:48:01.153Z,4.13
2022-09-15T14:50:32.979Z,3.38
2022-09-15T14:53:05.188Z,4.97
2022-09-15T14:55:36.417Z,3.22
2022-09-15T14:58:09.554Z,7.63
2022-09-15T15:00:44.042Z,7.22
2022-09-15T15:03:24.577Z,3.97
2022-09-15T15:06:02.791Z,2.95
2022-09-15T15:08:38.457Z,2.58
2022-09-15T15:11:10.665Z,4.68
2022-09-15T15:13:43.215Z,5.85
2022-09-15T15:16:19.559Z,4.78
2022-09-15T15:18:47.231Z,5.18
2022-09-15T15:21:36.081Z,5.78
2022-09-15T15:24:09.887Z,5.30
2022-09-15T15:26:39.336Z,3.35
2022-09-15T15:29:29.834Z,7.78
2022-09-15T15:32:05.357Z,4.45
2022-09-15T15:34:33.224Z,6.63
2022-09-15T15:37:04.104Z,3.50
2022-09-15T15:39:31.900Z,7.82
2022-09-15T15:42:05.158Z,3.28
2022-09-15T15:44:34.107Z,6.22
2022-09-15T15:47:03.533Z,5.53
2022-09-15T15:49:32.903Z,5.38
2022-09-15T15:52:01.626Z,10.15
2022-09-15T15:54:29.524Z,4.28
2022-09-15T15:57:05.189Z,12.55
2022-09-15T15:59:34.023Z,6.28
2022-09-15T16:02:01.583Z,10.48
2022-09-15T16:04:29.193Z,4.75
2022-09-15T16:06:56.923Z,5.90
2022-09-15T16:09:24.466Z,8.00
2022-09-15T16:11:51.980Z,6.13
2022-09-15T16:14:19.534Z,5.22
2022-09-15T16:16:48.392Z,6.47
2022-09-15T16:19:15.930Z,6.45
2022-09-15T16:21:43.723Z,4.88
2022-09-15T16:24:14.233Z,10.07
2022-09-15T16:26:42.596Z,6.05
2022-09-15T16:29:10.157Z,4.93
2022-09-15T16:31:38.475Z,3.00
2022-09-15T16:34:07.396Z,8.38
2022-09-15T16:36:36.240Z,8.68
2022-09-15T16:39:03.951Z,5.40
2022-09-15T16:41:33.066Z,7.22
2022-09-15T16:44:05.831Z,7.65
2022-09-15T16:46:33.371Z,5.40
2022-09-15T16:49:01.130Z,4.68
2022-09-15T16:51:31.600Z,3.67
2022-09-15T16:53:59.486Z,6.95
2022-09-15T16:56:27.136Z,9.43
2022-09-15T16:59:00.239Z,4.22
2022-09-15T17:01:28.811Z,9.15
2022-09-15T17:03:56.573Z,4.07
2022-09-15T17:06:24.455Z,6.88
2022-09-15T17:08:53.406Z,8.25
2022-09-15T17:11:23.661Z,6.20
2022-09-15T17:13:51.185Z,6.55
2022-09-15T17:16:20.535Z,5.25
2022-09-15T17:18:48.943Z,6.55
2022-09-15T17:21:18.350Z,9.20
2022-09-15T17:23:47.768Z,5.72
2022-09-15T17:26:21.718Z,8.25
2022-09-15T17:28:49.362Z,7.60
2022-09-15T17:31:18.791Z,3.88
2022-09-15T17:33:47.370Z,4.97
2022-09-15T17:36:15.151Z,6.53
2022-09-15T17:38:44.815Z,4.95
2022-09-15T17:41:16.855Z,5.78
2022-09-15T17:43:44.375Z,5.00
2022-09-15T17:46:12.048Z,7.63
2022-09-15T17:48:39.955Z,3.63
2022-09-15T17:51:08.107Z,6.88
2022-09-15T17:53:35.624Z,4.95
2022-09-15T17:56:03.447Z,3.33
2022-09-15T17:58:33.255Z,3.80
2022-09-15T18:01:01.326Z,3.63
2022-09-15T18:03:31.527Z,5.25
2022-09-15T18:06:01.290Z,2.08
2022-09-15T18:08:29.009Z,4.72
2022-09-15T18:10:56.596Z,5.32
2022-09-15T18:13:26.822Z,7.57
2022-09-15T18:15:56.441Z,2.63
2022-09-15T18:18:26.492Z,5.10
2022-09-15T18:20:55.357Z,7.20
2022-09-15T18:23:24.809Z,3.67
2022-09-15T18:25:52.962Z,4.53
2022-09-15T18:28:20.691Z,2.47
2022-09-15T18:30:50.199Z,5.65
2022-09-15T18:33:20.897Z,4.10
2022-09-15T18:35:49.715Z,2.70
2022-09-15T18:38:17.910Z,5.38
2022-09-15T18:40:46.634Z,6.75
2022-09-15T18:43:14.211Z,4.75
2022-09-15T18:45:42.358Z,2.25
2022-09-15T18:48:12.857Z,3.50
2022-09-15T18:50:44.350Z,3.72
2022-09-15T18:53:12.334Z,3.72
2022-09-15T18:55:41.434Z,6.03
2022-09-15T18:58:08.976Z,5.30
2022-09-15T19:00:37.274Z,9.98
2022-09-15T19:03:09.274Z,4.40
2022-09-15T19:05:37.002Z,5.65
2022-09-15T19:08:08.111Z,3.47
2022-09-15T19:10:35.640Z,7.70
2022-09-15T19:13:03.206Z,5.43
2022-09-15T19:15:33.624Z,10.25
2022-09-15T19:18:01.910Z,6.32
2022-09-15T19:20:30.082Z,7.22
2022-09-15T19:22:57.989Z,5.63
2022-09-15T19:25:26.861Z,5.03
2022-09-15T19:27:54.377Z,5.55
2022-09-15T19:30:21.871Z,5.80
2022-09-15T19:32:49.405Z,6.05
2022-09-15T19:35:16.952Z,5.70
2022-09-15T19:37:44.499Z,7.75
2022-09-15T19:40:14.733Z,4.40
2022-09-15T19:42:45.735Z,3.75
2022-09-15T19:45:14.181Z,8.43
2022-09-15T19:47:41.905Z,8.40
2022-09-15T19:50:11.186Z,7.00
2022-09-15T19:52:38.942Z,5.45
2022-09-15T19:55:09.434Z,7.88
2022-09-15T19:57:39.472Z,6.13
2022-09-15T20:00:11.530Z,6.20
2022-09-15T20:02:39.368Z,5.70
2022-09-15T20:05:08.538Z,6.68
2022-09-15T20:07:36.060Z,7.55
2022-09-15T20:10:04.262Z,11.30
2022-09-15T20:12:32.129Z,5.18
2022-09-15T20:14:59.665Z,7.32
2022-09-15T20:17:28.757Z,10.65
2022-09-15T20:19:56.373Z,10.40
2022-09-15T20:22:23.914Z,3.25
2022-09-15T20:24:51.731Z,5.93
2022-09-15T20:27:19.206Z,5.78
2022-09-15T20:29:46.767Z,5.32
2022-09-15T20:32:14.293Z,5.88
2022-09-15T20:34:43.201Z,4.85
2022-09-15T20:37:10.929Z,5.65
2022-09-15T20:39:38.461Z,8.20
2022-09-15T20:42:06.194Z,8.00
2022-09-15T20:44:33.741Z,8.23
2022-09-15T20:47:01.220Z,7.53
2022-09-15T20:49:28.724Z,5.30
2022-09-15T20:51:57.542Z,5.47
2022-09-15T20:54:25.062Z,6.20
2022-09-15T20:56:52.568Z,4.63
2022-09-15T20:59:20.091Z,9.15
2022-09-15T21:01:47.987Z,7.25
2022-09-15T21:04:15.671Z,7.43
2022-09-15T21:06:43.163Z,8.68
2022-09-15T21:09:12.462Z,6.85
2022-09-15T21:11:39.950Z,4.75
2022-09-15T21:14:07.488Z,5.63
2022-09-15T21:16:35.136Z,7.10
2022-09-15T21:19:02.730Z,7.35
2022-09-15T21:21:31.506Z,5.22
2022-09-15T21:24:03.403Z,5.03
2022-09-15T21:26:34.320Z,6.82
2022-09-15T21:29:02.269Z,4.85
2022-09-15T21:31:31.912Z,3.88
2022-09-15T21:34:00.286Z,4.03
2022-09-15T21:36:29.485Z,4.78
2022-09-15T21:38:58.595Z,5.88
2022-09-15T21:41:28.996Z,8.30
2022-09-15T21:43:59.204Z,6.18
2022-09-15T21:46:29.043Z,5.22
2022-09-15T21:48:57.738Z,10.93
2022-09-15T21:51:26.062Z,5.28
2022-09-15T21:53:54.755Z,4.72
2022-09-15T21:56:23.376Z,5.75
2022-09-15T21:58:51.120Z,5.22
2022-09-15T22:01:21.865Z,7.90
2022-09-15T22:03:51.435Z,4.70
2022-09-15T22:06:20.226Z,4.95
2022-09-15T22:08:47.943Z,5.03
2022-09-15T22:11:15.727Z,5.80
2022-09-15T22:13:44.751Z,7.07
2022-09-15T22:16:14.602Z,7.30
2022-09-15T22:18:44.373Z,5.00
2022-09-15T22:21:13.533Z,8.45
2022-09-15T22:23:41.699Z,7.85
2022-09-15T22:26:11.475Z,5.85
2022-09-15T22:28:39.136Z,6.97
2022-09-15T22:31:09.965Z,6.57
2022-09-15T22:33:38.442Z,4.28
2022-09-15T22:36:10.630Z,5.80
2022-09-15T22:38:38.452Z,8.63
2022-09-15T22:41:08.966Z,4.28
2022-09-15T22:43:36.724Z,10.30
2022-09-15T22:46:04.591Z,4.10
2022-09-15T22:48:33.496Z,7.05
2022-09-15T22:51:01.266Z,4.07
2022-09-15T22:53:30.176Z,6.32
2022-09-15T22:56:05.837Z,6.47
2022-09-15T22:58:33.452Z,4.25
2022-09-15T23:01:05.475Z,3.63
2022-09-15T23:03:33.172Z,4.07
2022-09-15T23:06:02.010Z,5.60
2022-09-15T23:08:31.665Z,6.05
2022-09-15T23:11:04.389Z,5.60
2022-09-15T23:13:31.920Z,4.10
2022-09-15T23:15:59.446Z,7.30
2022-09-15T23:18:27.860Z,6.53
2022-09-15T23:21:00.005Z,3.13
2022-09-15T23:23:28.115Z,7.53
2022-09-15T23:25:57.578Z,4.65
2022-09-15T23:28:25.390Z,5.43
2022-09-15T23:30:53.705Z,9.80
2022-09-15T23:33:22.163Z,5.20
2022-09-15T23:35:50.029Z,5.93
2022-09-15T23:38:18.247Z,3.33
2022-09-15T23:40:46.837Z,3.45
2022-09-15T23:43:15.727Z,5.15
2022-09-15T23:45:44.106Z,4.43
2022-09-15T23:48:12.665Z,8.05
2022-09-15T23:50:41.378Z,5.82
2022-09-15T23:53:09.096Z,6.68
2022-09-15T23:55:37.339Z,2.42
2022-09-15T23:58:05.938Z,4.97
